createdAt,value
2022-08-25T00:02:37.140Z,0.33
2022-08-25T00:07:42.275Z,0.40
2022-08-25T00:12:45.934Z,0.40
2022-08-25T00:17:50.493Z,0.50
2022-08-25T00:22:56.159Z,0.50
2022-08-25T00:28:03.064Z,0.50
2022-08-25T00:33:10.263Z,0.37
2022-08-25T00:38:16.557Z,0.60
2022-08-25T00:43:20.220Z,0.50
2022-08-25T00:48:23.969Z,0.47
2022-08-25T00:53:29.352Z,0.40
2022-08-25T00:58:35.435Z,0.60
2022-08-25T01:03:39.263Z,0.60
2022-08-25T01:08:44.707Z,0.80
2022-08-25T01:13:52.156Z,0.70
2022-08-25T01:18:58.312Z,0.70
2022-08-25T01:24:03.786Z,0.80
2022-08-25T01:29:25.226Z,0.90
2022-08-25T01:34:31.820Z,0.60
2022-08-25T01:39:37.675Z,0.80
2022-08-25T01:44:43.409Z,0.80
2022-08-25T01:49:47.571Z,0.80
2022-08-25T01:54:52.748Z,0.70
2022-08-25T01:59:56.359Z,0.80
2022-08-25T02:05:00.035Z,1.00
2022-08-25T02:10:07.273Z,1.10
2022-08-25T02:15:11.870Z,0.97
2022-08-25T02:20:15.538Z,0.90
2022-08-25T02:25:21.180Z,1.10
2022-08-25T02:30:24.927Z,0.80
2022-08-25T02:35:29.675Z,0.80
2022-08-25T02:40:35.080Z,0.70
2022-08-25T02:45:38.790Z,0.60
2022-08-25T02:50:42.503Z,0.67
2022-08-25T02:55:48.465Z,0.90
2022-08-25T03:00:52.902Z,0.60
2022-08-25T03:05:57.733Z,0.60
2022-08-25T03:11:02.899Z,0.90
2022-08-25T03:16:11.340Z,0.90
2022-08-25T03:21:16.237Z,0.73
2022-08-25T03:26:39.023Z,0.80
2022-08-25T03:31:44.706Z,0.87
2022-08-25T03:36:50.892Z,0.73
2022-08-25T03:41:55.955Z,0.60
2022-08-25T03:46:59.709Z,0.70
2022-08-25T03:52:03.879Z,0.70
2022-08-25T03:57:09.611Z,0.60
2022-08-25T04:02:13.359Z,0.70
2022-08-25T04:07:17.157Z,1.00
2022-08-25T04:12:22.127Z,1.13
2022-08-25T04:17:26.745Z,1.00
2022-08-25T04:22:31.065Z,1.20
2022-08-25T04:27:37.847Z,0.83
2022-08-25T04:32:41.475Z,0.90
2022-08-25T04:37:48.071Z,1.00
2022-08-25T04:42:53.076Z,1.03
2022-08-25T04:48:00.784Z,0.90
2022-08-25T04:53:04.434Z,0.93
2022-08-25T04:58:14.678Z,0.90
2022-08-25T05:03:20.817Z,1.00
2022-08-25T05:08:24.521Z,0.97
2022-08-25T05:13:29.521Z,1.10
2022-08-25T05:18:34.842Z,1.40
2022-08-25T05:23:39.397Z,1.30
2022-08-25T05:28:44.606Z,1.10
2022-08-25T05:33:48.380Z,1.10
2022-08-25T05:38:52.412Z,0.90
2022-08-25T05:43:58.116Z,1.00
2022-08-25T05:49:01.903Z,1.00
2022-08-25T05:54:05.783Z,1.00
2022-08-25T05:59:10.727Z,1.00
2022-08-25T06:04:15.012Z,1.00
2022-08-25T06:09:18.680Z,1.10
2022-08-25T06:14:24.366Z,0.90
2022-08-25T06:19:28.376Z,0.90
2022-08-25T06:24:32.030Z,1.23
2022-08-25T06:29:37.061Z,1.10
2022-08-25T06:34:41.800Z,1.60
2022-08-25T06:39:45.463Z,1.47
2022-08-25T06:44:50.462Z,1.73
2022-08-25T06:49:54.378Z,1.50
2022-08-25T06:54:58.002Z,1.57
2022-08-25T07:00:03.103Z,1.60
2022-08-25T07:05:13.191Z,1.67
2022-08-25T07:10:19.562Z,1.57
2022-08-25T07:15:24.617Z,1.77
2022-08-25T07:20:29.243Z,1.57
2022-08-25T07:25:34.619Z,1.47
2022-08-25T07:30:39.587Z,1.80
2022-08-25T07:35:43.708Z,1.73
2022-08-25T07:40:54.464Z,1.40
2022-08-25T07:46:01.961Z,1.70
2022-08-25T07:51:08.771Z,1.30
2022-08-25T07:56:13.937Z,1.73
2022-08-25T08:01:21.653Z,1.70
2022-08-25T08:06:25.901Z,1.63
2022-08-25T08:11:31.018Z,1.70
2022-08-25T08:16:36.130Z,1.67
2022-08-25T08:21:40.144Z,1.37
2022-08-25T08:26:58.169Z,1.83
2022-08-25T08:32:04.273Z,1.70
2022-08-25T08:37:10.522Z,1.80
2022-08-25T08:42:34.166Z,1.40
2022-08-25T08:47:48.753Z,1.83
2022-08-25T08:52:59.867Z,1.40
2022-08-25T08:58:08.816Z,1.30
2022-08-25T09:03:26.152Z,1.53
2022-08-25T09:08:29.985Z,1.33
2022-08-25T09:13:48.611Z,1.40
2022-08-25T09:19:01.429Z,1.17
2022-08-25T09:24:21.117Z,1.40
2022-08-25T09:29:29.028Z,1.50
2022-08-25T09:34:35.888Z,1.70
2022-08-25T09:39:39.725Z,1.30
2022-08-25T09:44:45.388Z,1.10
2022-08-25T09:49:53.087Z,1.60
2022-08-25T09:54:57.941Z,1.70
2022-08-25T10:00:14.279Z,1.60
2022-08-25T10:05:26.474Z,1.60
2022-08-25T10:10:33.930Z,1.50
2022-08-25T10:15:39.743Z,1.33
2022-08-25T10:20:45.128Z,1.23
2022-08-25T10:25:57.900Z,1.20
2022-08-25T10:31:11.877Z,1.10
2022-08-25T10:36:23.730Z,1.33
2022-08-25T10:41:45.023Z,1.60
2022-08-25T10:46:57.729Z,1.20
2022-08-25T10:52:08.765Z,1.27
2022-08-25T10:57:23.390Z,1.63
2022-08-25T11:03:01.059Z,1.50
2022-08-25T11:08:12.740Z,1.37
2022-08-25T11:13:26.274Z,1.13
2022-08-25T11:18:32.809Z,1.10
2022-08-25T11:23:41.731Z,1.20
2022-08-25T11:28:55.243Z,1.43
2022-08-25T11:34:00.597Z,1.60
2022-08-25T11:39:16.493Z,1.53
2022-08-25T11:44:51.874Z,1.80
2022-08-25T11:50:03.410Z,1.50
2022-08-25T11:55:13.162Z,1.40
2022-08-25T12:00:36.822Z,1.00
2022-08-25T12:06:14.480Z,1.60
2022-08-25T12:11:51.256Z,1.37
2022-08-25T12:17:10.097Z,1.50
2022-08-25T12:22:43.862Z,1.20
2022-08-25T12:27:56.850Z,0.97
2022-08-25T12:33:08.293Z,0.90
2022-08-25T12:38:16.454Z,1.20
2022-08-25T12:43:37.665Z,1.37
2022-08-25T12:49:07.116Z,1.50
2022-08-25T12:54:19.119Z,1.30
2022-08-25T12:59:36.580Z,1.70
2022-08-25T13:05:09.669Z,1.50
2022-08-25T13:10:25.406Z,1.43
2022-08-25T13:15:38.347Z,1.17
2022-08-25T13:20:44.115Z,1.10
2022-08-25T13:25:51.177Z,1.30
2022-08-25T13:31:02.894Z,1.50
2022-08-25T13:36:24.581Z,1.23
2022-08-25T13:41:29.454Z,1.20
2022-08-25T13:46:35.439Z,1.40
2022-08-25T13:51:41.973Z,0.90
2022-08-25T13:56:47.302Z,0.90
2022-08-25T14:01:53.998Z,0.80
2022-08-25T14:07:25.327Z,0.90
2022-08-25T14:12:35.399Z,0.93
2022-08-25T14:17:43.406Z,1.13
2022-08-25T14:22:47.601Z,1.17
2022-08-25T14:28:13.650Z,1.27
2022-08-25T14:33:21.834Z,1.03
2022-08-25T14:38:27.229Z,1.00
2022-08-25T14:43:31.750Z,0.93
2022-08-25T14:48:44.185Z,0.90
2022-08-25T14:53:48.540Z,0.90
2022-08-25T14:58:54.213Z,0.70
2022-08-25T15:04:04.597Z,0.93
2022-08-25T15:09:11.960Z,1.20
2022-08-25T15:14:17.547Z,0.90
2022-08-25T15:19:24.849Z,1.17
2022-08-25T15:24:29.697Z,0.97
2022-08-25T15:29:35.536Z,1.10
2022-08-25T15:34:40.686Z,0.80
2022-08-25T15:39:46.058Z,1.07
2022-08-25T15:44:53.345Z,0.70
2022-08-25T15:50:06.903Z,1.03
2022-08-25T15:55:12.169Z,0.70
2022-08-25T16:00:17.033Z,0.70
2022-08-25T16:05:25.905Z,1.00
2022-08-25T16:10:29.916Z,1.00
2022-08-25T16:15:35.604Z,1.17
2022-08-25T16:20:44.826Z,0.80
2022-08-25T16:25:49.518Z,1.10
2022-08-25T16:30:56.062Z,1.07
2022-08-25T16:36:08.186Z,0.70
2022-08-25T16:41:14.119Z,0.70
2022-08-25T16:46:19.991Z,0.70
2022-08-25T16:51:28.922Z,1.10
2022-08-25T16:56:35.482Z,0.73
2022-08-25T17:01:42.593Z,0.80
2022-08-25T17:06:52.082Z,0.90
2022-08-25T17:11:57.150Z,0.90
2022-08-25T17:17:00.812Z,0.97
2022-08-25T17:22:08.165Z,0.90
2022-08-25T17:27:13.136Z,0.80
2022-08-25T17:32:17.207Z,0.80
2022-08-25T17:37:22.569Z,0.80
2022-08-25T17:42:26.200Z,0.83
2022-08-25T17:47:34.090Z,0.80
2022-08-25T17:52:39.290Z,0.70
2022-08-25T17:57:42.887Z,0.77
2022-08-25T18:02:46.921Z,0.67
2022-08-25T18:07:52.006Z,0.60
2022-08-25T18:12:57.310Z,0.67
2022-08-25T18:18:01.690Z,0.70
2022-08-25T18:23:09.936Z,0.70
2022-08-25T18:28:13.635Z,0.90
2022-08-25T18:33:18.917Z,0.77
2022-08-25T18:38:41.404Z,0.80
2022-08-25T18:43:47.237Z,0.80
2022-08-25T18:48:52.624Z,0.80
2022-08-25T18:54:01.120Z,0.80
2022-08-25T18:59:05.589Z,0.70
2022-08-25T19:04:10.165Z,1.00
2022-08-25T19:09:18.054Z,0.90
2022-08-25T19:14:21.705Z,1.07
2022-08-25T19:19:25.903Z,1.00
2022-08-25T19:24:31.376Z,1.00
2022-08-25T19:29:35.064Z,1.03
2022-08-25T19:34:42.711Z,0.90
2022-08-25T19:39:53.256Z,0.90
2022-08-25T19:44:59.530Z,0.80
2022-08-25T19:50:03.220Z,0.80
2022-08-25T19:55:09.279Z,1.00
2022-08-25T20:00:16.737Z,0.97
2022-08-25T20:05:23.669Z,0.87
2022-08-25T20:10:34.708Z,1.00
2022-08-25T20:15:46.157Z,0.97
2022-08-25T20:20:50.289Z,1.10
2022-08-25T20:25:55.241Z,0.90
2022-08-25T20:30:59.919Z,0.90
2022-08-25T20:36:04.779Z,0.90
2022-08-25T20:41:11.959Z,1.07
2022-08-25T20:46:16.310Z,1.00
2022-08-25T20:51:21.050Z,0.80
2022-08-25T20:56:30.046Z,0.87
2022-08-25T21:01:39.854Z,0.93
2022-08-25T21:06:44.417Z,1.07
2022-08-25T21:11:51.530Z,0.90
2022-08-25T21:16:56.198Z,0.90
2022-08-25T21:22:00.432Z,1.20
2022-08-25T21:27:05.673Z,1.30
2022-08-25T21:32:09.834Z,1.10
2022-08-25T21:37:13.507Z,1.00
2022-08-25T21:42:20.901Z,0.90
2022-08-25T21:47:25.300Z,1.00
2022-08-25T21:52:29.055Z,1.00
2022-08-25T21:57:36.600Z,0.97
2022-08-25T22:02:40.469Z,0.90
2022-08-25T22:07:47.792Z,0.90
2022-08-25T22:12:52.888Z,0.90
2022-08-25T22:17:56.528Z,1.23
2022-08-25T22:23:00.845Z,0.90
2022-08-25T22:28:06.806Z,0.90
2022-08-25T22:33:10.623Z,1.10
2022-08-25T22:38:14.689Z,1.00
2022-08-25T22:43:21.541Z,0.90
2022-08-25T22:48:25.231Z,0.93
2022-08-25T22:53:29.404Z,0.90
2022-08-25T22:58:34.978Z,0.93
2022-08-25T23:03:38.657Z,1.00
2022-08-25T23:08:49.004Z,1.00
2022-08-25T23:13:56.106Z,0.80
2022-08-25T23:19:00.250Z,0.93
2022-08-25T23:24:04.605Z,0.80
2022-08-25T23:29:18.432Z,1.03
2022-08-25T23:34:22.783Z,0.90
2022-08-25T23:39:26.881Z,1.10
2022-08-25T23:44:31.877Z,1.00
2022-08-25T23:49:35.569Z,1.00
2022-08-25T23:54:39.461Z,0.83
2022-08-25T23:59:44.785Z,1.10
